createdAt,value
2018-09-02T00:01:45.981Z,102703.77
2018-09-02T00:04:50.176Z,102706.70
2018-09-02T00:07:54.409Z,102705.64
2018-09-02T00:10:58.629Z,102704.58
2018-09-02T00:14:02.829Z,102704.79
2018-09-02T00:17:07.040Z,102710.64
2018-09-02T00:20:11.233Z,102709.67
2018-09-02T00:23:15.480Z,102705.88
2018-09-02T00:26:19.704Z,102711.11
2018-09-02T00:29:23.892Z,102705.98
2018-09-02T00:32:28.116Z,102707.51
2018-09-02T00:35:32.338Z,102707.02
2018-09-02T00:38:36.577Z,102715.94
2018-09-02T00:41:40.942Z,102717.30
2018-09-02T00:44:45.176Z,102713.75
2018-09-02T00:47:49.374Z,102711.63
2018-09-02T00:50:53.597Z,102709.64
2018-09-02T00:53:57.780Z,102704.48
2018-09-02T00:57:02.022Z,102711.32
2018-09-02T01:00:06.657Z,102710.51
2018-09-02T01:03:10.896Z,102708.88
2018-09-02T01:06:15.098Z,102714.56
2018-09-02T01:09:19.310Z,102707.30
2018-09-02T01:12:23.540Z,102716.39
2018-09-02T01:15:27.761Z,102717.30
2018-09-02T01:18:31.956Z,102717.70
2018-09-02T01:21:36.184Z,102715.55
2018-09-02T01:24:40.382Z,102722.33
2018-09-02T01:27:44.610Z,102725.61
2018-09-02T01:30:48.820Z,102731.28
2018-09-02T01:33:53.040Z,102723.70
2018-09-02T01:36:57.250Z,102725.27
2018-09-02T01:40:01.472Z,102727.69
2018-09-02T01:43:05.857Z,102721.91
2018-09-02T01:46:10.074Z,102722.52
2018-09-02T01:49:14.281Z,102718.81
2018-09-02T01:52:18.505Z,102720.23
2018-09-02T01:55:22.750Z,102725.99
2018-09-02T01:58:27.005Z,102722.03
2018-09-02T02:01:31.213Z,102725.88
2018-09-02T02:04:41.343Z,102723.62
2018-09-02T02:07:45.529Z,102724.73
2018-09-02T02:10:49.767Z,102713.73
2018-09-02T02:13:53.996Z,102717.77
2018-09-02T02:16:58.246Z,102720.00
2018-09-02T02:20:02.445Z,102725.00
2018-09-02T02:23:06.665Z,102727.27
2018-09-02T02:26:10.869Z,102734.88
2018-09-02T02:29:15.105Z,102733.20
2018-09-02T02:32:19.310Z,102733.40
2018-09-02T02:35:23.540Z,102734.30
2018-09-02T02:38:27.753Z,102731.61
2018-09-02T02:41:31.965Z,102727.39
2018-09-02T02:44:36.161Z,102727.12
2018-09-02T02:47:40.388Z,102726.22
2018-09-02T02:50:44.593Z,102718.07
2018-09-02T02:53:48.805Z,102722.23
2018-09-02T02:56:53.053Z,102723.95
2018-09-02T02:59:57.264Z,102720.09
2018-09-02T03:03:01.518Z,102710.81
2018-09-02T03:06:05.892Z,102717.70
2018-09-02T03:09:11.340Z,102718.91
2018-09-02T03:12:15.558Z,102724.24
2018-09-02T03:15:19.849Z,102723.26
2018-09-02T03:18:24.072Z,102721.36
2018-09-02T03:21:28.301Z,102724.81
2018-09-02T03:24:32.509Z,102723.17
2018-09-02T03:27:36.781Z,102725.23
2018-09-02T03:30:41.009Z,102714.70
2018-09-02T03:33:45.216Z,102718.67
2018-09-02T03:36:49.421Z,102715.47
2018-09-02T03:39:53.689Z,102720.45
2018-09-02T03:42:57.957Z,102724.92
2018-09-02T03:46:02.173Z,102723.62
2018-09-02T03:49:06.416Z,102718.01
2018-09-02T03:52:10.616Z,102723.33
2018-09-02T03:55:14.865Z,102719.46
2018-09-02T03:58:19.066Z,102723.48
2018-09-02T04:01:23.285Z,102730.87
2018-09-02T04:04:27.770Z,102731.21
2018-09-02T04:07:32.003Z,102726.13
2018-09-02T04:10:36.205Z,102730.77
2018-09-02T04:13:40.412Z,102732.31
2018-09-02T04:16:44.620Z,102726.51
2018-09-02T04:19:48.836Z,102717.34
2018-09-02T04:22:53.037Z,102715.86
2018-09-02T04:25:57.269Z,102723.42
2018-09-02T04:29:01.494Z,102722.43
2018-09-02T04:32:05.877Z,102717.00
2018-09-02T04:35:10.079Z,102717.91
2018-09-02T04:38:14.272Z,102726.59
2018-09-02T04:41:18.506Z,102730.67
2018-09-02T04:44:22.704Z,102729.00
2018-09-02T04:47:26.923Z,102728.83
2018-09-02T04:50:31.125Z,102738.37
2018-09-02T04:53:35.409Z,102727.98
2018-09-02T04:56:39.612Z,102731.23
2018-09-02T04:59:43.833Z,102730.06
2018-09-02T05:02:48.050Z,102732.25
2018-09-02T05:05:52.273Z,102731.08
2018-09-02T05:08:56.469Z,102728.88
2018-09-02T05:12:00.681Z,102737.70
2018-09-02T05:15:04.888Z,102741.59
2018-09-02T05:18:09.221Z,102735.64
2018-09-02T05:21:13.414Z,102732.92
2018-09-02T05:24:17.654Z,102740.53
2018-09-02T05:27:22.166Z,102732.52
2018-09-02T05:30:26.366Z,102736.93
2018-09-02T05:33:30.570Z,102741.16
2018-09-02T05:36:36.082Z,102740.14
2018-09-02T05:39:40.297Z,102742.49
2018-09-02T05:42:44.508Z,102746.52
2018-09-02T05:45:48.696Z,102744.09
2018-09-02T05:48:53.290Z,102752.70
2018-09-02T05:51:57.498Z,102748.34
2018-09-02T05:55:01.685Z,102736.48
2018-09-02T05:58:05.928Z,102737.89
2018-09-02T06:01:10.161Z,102740.88
2018-09-02T06:04:14.359Z,102744.14
2018-09-02T06:07:18.589Z,102746.19
2018-09-02T06:10:22.986Z,102744.66
2018-09-02T06:13:27.204Z,102744.34
2018-09-02T06:16:31.400Z,102746.82
2018-09-02T06:19:35.630Z,102747.17
2018-09-02T06:22:39.839Z,102745.30
2018-09-02T06:25:44.032Z,102745.94
2018-09-02T06:28:48.240Z,102745.91
2018-09-02T06:31:52.473Z,102752.08
2018-09-02T06:34:56.736Z,102748.59
2018-09-02T06:38:00.966Z,102747.84
2018-09-02T06:41:05.180Z,102750.72
2018-09-02T06:44:09.896Z,102752.66
2018-09-02T06:47:15.630Z,102752.02
2018-09-02T06:50:21.497Z,102757.34
2018-09-02T06:53:25.737Z,102748.62
2018-09-02T06:56:30.714Z,102749.41
2018-09-02T06:59:35.173Z,102747.76
2018-09-02T07:02:39.413Z,102746.78
2018-09-02T07:05:43.673Z,102752.74
2018-09-02T07:08:47.938Z,102752.36
2018-09-02T07:11:52.165Z,102756.09
2018-09-02T07:14:56.378Z,102750.92
2018-09-02T07:18:00.641Z,102751.12
2018-09-02T07:21:04.880Z,102747.61
2018-09-02T07:24:09.221Z,102742.84
2018-09-02T07:27:13.432Z,102744.02
2018-09-02T07:30:17.688Z,102746.52
2018-09-02T07:33:21.895Z,102749.53
2018-09-02T07:36:26.106Z,102746.20
2018-09-02T07:39:30.333Z,102746.11
2018-09-02T07:42:34.607Z,102744.87
2018-09-02T07:45:38.806Z,102743.51
2018-09-02T07:48:43.058Z,102741.23
2018-09-02T07:51:47.285Z,102735.72
2018-09-02T07:54:51.547Z,102739.71
2018-09-02T07:57:55.810Z,102739.91
2018-09-02T08:01:00.053Z,102738.70
2018-09-02T08:04:04.310Z,102740.19
2018-09-02T08:07:08.589Z,102734.27
2018-09-02T08:10:12.885Z,102731.90
2018-09-02T08:13:17.626Z,102725.84
2018-09-02T08:16:21.857Z,102732.88
2018-09-02T08:19:26.070Z,102730.48
2018-09-02T08:22:31.105Z,102732.22
2018-09-02T08:25:35.312Z,102733.27
2018-09-02T08:28:39.542Z,102733.38
2018-09-02T08:31:43.750Z,102734.48
2018-09-02T08:34:47.993Z,102740.52
2018-09-02T08:37:52.214Z,102737.71
2018-09-02T08:40:56.437Z,102738.64
2018-09-02T08:44:00.624Z,102741.16
2018-09-02T08:47:04.925Z,102740.38
2018-09-02T08:50:09.140Z,102741.28
2018-09-02T08:53:13.352Z,102734.30
2018-09-02T08:56:17.565Z,102737.17
2018-09-02T08:59:21.789Z,102734.80
2018-09-02T09:02:26.026Z,102732.22
2018-09-02T09:05:30.301Z,102732.39
2018-09-02T09:08:34.556Z,102736.53
2018-09-02T09:11:38.704Z,102741.73
2018-09-02T09:14:42.993Z,102734.37
2018-09-02T09:17:47.221Z,102739.88
2018-09-02T09:20:51.413Z,102739.91
2018-09-02T09:23:55.767Z,102745.35
2018-09-02T09:26:59.911Z,102744.52
2018-09-02T09:30:04.173Z,102742.23
2018-09-02T09:33:08.620Z,102740.92
2018-09-02T09:36:12.864Z,102745.91
2018-09-02T09:39:17.057Z,102737.50
2018-09-02T09:42:21.264Z,102733.50
2018-09-02T09:45:25.496Z,102731.91
2018-09-02T09:48:29.716Z,102729.14
2018-09-02T09:51:33.905Z,102731.34
2018-09-02T09:54:38.174Z,102729.52
2018-09-02T09:57:42.404Z,102731.58
2018-09-02T10:00:50.757Z,102728.72
2018-09-02T10:03:54.984Z,102728.09
2018-09-02T10:06:59.196Z,102722.72
2018-09-02T10:10:03.389Z,102723.95
2018-09-02T10:13:07.584Z,102719.06
2018-09-02T10:16:12.661Z,102717.44
2018-09-02T10:19:16.861Z,102717.16
2018-09-02T10:22:21.077Z,102709.95
2018-09-02T10:25:25.333Z,102703.56
2018-09-02T10:28:29.613Z,102706.70
2018-09-02T10:31:33.889Z,102692.70
2018-09-02T10:34:38.166Z,102689.70
2018-09-02T10:37:42.701Z,102690.39
2018-09-02T10:40:47.039Z,102684.33
2018-09-02T10:43:51.452Z,102678.64
2018-09-02T10:46:55.713Z,102680.59
2018-09-02T10:49:59.976Z,102678.67
2018-09-02T10:53:04.322Z,102678.92
2018-09-02T10:56:08.601Z,102682.95
2018-09-02T10:59:13.190Z,102668.40
2018-09-02T11:02:17.803Z,102669.98
2018-09-02T11:05:22.249Z,102665.03
2018-09-02T11:08:27.192Z,102663.97
2018-09-02T11:11:31.867Z,102666.12
2018-09-02T11:14:36.076Z,102663.82
2018-09-02T11:17:40.583Z,102667.50
2018-09-02T11:20:44.828Z,102664.55
2018-09-02T11:23:49.170Z,102664.15
2018-09-02T11:26:53.482Z,102664.78
2018-09-02T11:29:57.725Z,102659.63
2018-09-02T11:33:02.036Z,102661.67
2018-09-02T11:36:06.881Z,102658.80
2018-09-02T11:39:11.674Z,102664.87
2018-09-02T11:42:16.026Z,102656.42
2018-09-02T11:45:20.667Z,102650.23
2018-09-02T11:48:25.740Z,102655.53
2018-09-02T11:51:30.146Z,102645.38
2018-09-02T11:54:34.978Z,102649.55
2018-09-02T11:57:39.785Z,102645.72
2018-09-02T12:00:44.544Z,102647.86
2018-09-02T12:03:48.960Z,102641.89
2018-09-02T12:06:53.553Z,102642.55
2018-09-02T12:10:14.990Z,102640.02
2018-09-02T12:13:22.526Z,102635.52
2018-09-02T12:16:58.897Z,102636.77
2018-09-02T12:20:15.269Z,102627.47
2018-09-02T12:23:19.510Z,102627.63
2018-09-02T12:26:24.017Z,102621.61
2018-09-02T12:29:28.313Z,102618.94
2018-09-02T12:32:32.649Z,102620.67
2018-09-02T12:35:36.977Z,102620.59
2018-09-02T12:38:41.305Z,102614.45
2018-09-02T12:41:45.607Z,102614.27
2018-09-02T12:44:49.932Z,102616.03
2018-09-02T12:47:54.707Z,102611.12
2018-09-02T12:50:59.018Z,102613.56
2018-09-02T12:54:03.384Z,102610.58
2018-09-02T12:57:09.847Z,102610.32
2018-09-02T13:00:14.749Z,102619.61
2018-09-02T13:03:19.179Z,102620.02
2018-09-02T13:06:24.090Z,102607.45
2018-09-02T13:09:29.351Z,102601.60
2018-09-02T13:16:25.809Z,102597.55
2018-09-02T13:19:30.102Z,102594.27
2018-09-02T13:22:34.349Z,102592.44
2018-09-02T13:25:38.878Z,102585.27
2018-09-02T13:28:43.141Z,102585.08
2018-09-02T13:31:47.639Z,102578.84
2018-09-02T13:34:52.080Z,102580.81
2018-09-02T13:37:56.393Z,102572.69
2018-09-02T13:41:00.670Z,102574.83
2018-09-02T13:44:05.108Z,102564.78
2018-09-02T13:47:09.521Z,102574.86
2018-09-02T13:50:13.867Z,102569.75
2018-09-02T13:53:18.175Z,102563.98
2018-09-02T13:56:22.577Z,102561.22
2018-09-02T13:59:26.977Z,102561.58
2018-09-02T14:02:31.243Z,102554.26
2018-09-02T14:05:35.581Z,102558.75
2018-09-02T14:08:39.893Z,102557.36
2018-09-02T14:11:44.219Z,102556.34
2018-09-02T14:14:49.126Z,102549.16
2018-09-02T14:17:53.597Z,102543.38
2018-09-02T14:20:58.022Z,102542.87
2018-09-02T14:24:02.357Z,102533.69
2018-09-02T14:27:06.719Z,102533.25
2018-09-02T14:30:11.005Z,102527.80
2018-09-02T14:33:15.389Z,102534.20
2018-09-02T14:36:19.706Z,102533.53
2018-09-02T14:39:24.046Z,102534.70
2018-09-02T14:42:28.493Z,102532.38
2018-09-02T14:45:32.832Z,102527.17
2018-09-02T14:48:37.330Z,102521.58
2018-09-02T14:51:41.692Z,102518.61
2018-09-02T14:54:46.117Z,102518.11
2018-09-02T14:57:50.394Z,102513.80
2018-09-02T15:00:54.684Z,102509.99
2018-09-02T15:03:59.062Z,102509.54
2018-09-02T15:07:03.414Z,102510.48
2018-09-02T15:10:07.894Z,102502.03
2018-09-02T15:13:12.210Z,102505.14
2018-09-02T15:16:16.501Z,102500.98
2018-09-02T15:19:20.812Z,102501.13
2018-09-02T15:22:25.105Z,102499.59
2018-09-02T15:25:29.461Z,102501.08
2018-09-02T15:28:33.807Z,102493.73
2018-09-02T15:31:38.096Z,102490.96
2018-09-02T15:34:42.505Z,102493.73
2018-09-02T15:37:46.804Z,102496.76
2018-09-02T15:40:51.269Z,102496.66
2018-09-02T15:43:55.750Z,102488.41
2018-09-02T15:47:00.193Z,102491.27
2018-09-02T15:50:04.762Z,102489.42
2018-09-02T15:53:09.180Z,102483.22
2018-09-02T15:56:13.640Z,102479.42
2018-09-02T15:59:17.941Z,102477.29
2018-09-02T16:02:22.242Z,102473.44
2018-09-02T16:05:26.596Z,102468.17
2018-09-02T16:08:31.079Z,102467.41
2018-09-02T16:11:35.503Z,102453.52
2018-09-02T16:14:39.950Z,102454.28
2018-09-02T16:17:44.268Z,102446.33
2018-09-02T16:20:48.700Z,102447.17
2018-09-02T16:23:53.024Z,102439.56
2018-09-02T16:26:57.392Z,102437.63
2018-09-02T16:30:01.704Z,102449.02
2018-09-02T16:33:06.119Z,102447.83
2018-09-02T16:36:10.526Z,102443.66
2018-09-02T16:39:25.858Z,102438.61
2018-09-02T16:42:30.863Z,102439.98
2018-09-02T16:45:35.208Z,102437.64
2018-09-02T16:48:39.440Z,102435.05
2018-09-02T16:51:43.694Z,102430.91
2018-09-02T16:54:47.926Z,102435.83
2018-09-02T16:57:52.235Z,102425.77
2018-09-02T17:00:56.504Z,102426.12
2018-09-02T17:04:03.585Z,102422.91
2018-09-02T17:07:07.889Z,102418.82
2018-09-02T17:10:12.111Z,102419.72
2018-09-02T17:13:17.036Z,102410.16
2018-09-02T17:16:21.297Z,102413.02
2018-09-02T17:19:28.692Z,102409.87
2018-09-02T17:22:33.025Z,102413.65
2018-09-02T17:25:37.271Z,102406.11
2018-09-02T17:28:41.534Z,102405.95
2018-09-02T17:31:45.755Z,102403.91
2018-09-02T17:34:50.102Z,102402.15
2018-09-02T17:37:54.398Z,102397.94
2018-09-02T17:40:58.665Z,102396.24
2018-09-02T17:44:02.933Z,102395.83
2018-09-02T17:47:07.224Z,102397.08
2018-09-02T17:50:11.548Z,102391.48
2018-09-02T17:53:15.876Z,102389.05
2018-09-02T17:56:20.457Z,102394.70
2018-09-02T17:59:24.709Z,102400.76
2018-09-02T18:02:29.134Z,102396.83
2018-09-02T18:05:33.336Z,102398.88
2018-09-02T18:08:37.657Z,102394.59
2018-09-02T18:11:42.046Z,102396.95
2018-09-02T18:14:46.277Z,102397.94
2018-09-02T18:17:50.581Z,102406.09
2018-09-02T18:20:54.938Z,102404.67
2018-09-02T18:23:59.349Z,102407.84
2018-09-02T18:27:03.809Z,102410.44
2018-09-02T18:30:08.269Z,102405.48
2018-09-02T18:33:12.802Z,102414.94
2018-09-02T18:36:17.254Z,102421.15
2018-09-02T18:39:21.730Z,102417.21
2018-09-02T18:42:26.241Z,102411.86
2018-09-02T18:45:30.687Z,102411.45
2018-09-02T18:48:34.971Z,102410.52
2018-09-02T18:51:39.951Z,102404.51
2018-09-02T18:54:44.326Z,102409.36
2018-09-02T18:57:48.828Z,102407.86
2018-09-02T19:02:01.186Z,102406.95
2018-09-02T19:05:05.570Z,102413.75
2018-09-02T19:08:09.821Z,102409.11
2018-09-02T19:11:14.098Z,102408.74
2018-09-02T19:14:18.406Z,102410.55
2018-09-02T19:17:22.745Z,102411.07
2018-09-02T19:20:27.080Z,102409.41
2018-09-02T19:23:31.466Z,102414.78
2018-09-02T19:26:35.816Z,102417.10
2018-09-02T19:29:40.218Z,102416.20
2018-09-02T19:32:44.515Z,102409.63
2018-09-02T19:35:48.985Z,102422.48
2018-09-02T19:38:53.313Z,102412.80
2018-09-02T19:41:57.676Z,102417.07
2018-09-02T19:45:01.933Z,102412.89
2018-09-02T19:48:06.293Z,102406.53
2018-09-02T19:51:10.570Z,102410.95
2018-09-02T19:54:14.825Z,102400.07
2018-09-02T19:57:19.131Z,102399.40
2018-09-02T20:00:24.360Z,102401.45
2018-09-02T20:03:37.705Z,102394.22
2018-09-02T20:06:42.021Z,102392.23
2018-09-02T20:09:46.354Z,102392.30
2018-09-02T20:12:50.774Z,102395.16
2018-09-02T20:15:55.084Z,102394.46
2018-09-02T20:18:59.526Z,102399.05
2018-09-02T20:22:03.762Z,102403.73
2018-09-02T20:25:08.055Z,102402.89
2018-09-02T20:28:12.377Z,102403.36
2018-09-02T20:31:16.766Z,102391.73
2018-09-02T20:34:21.130Z,102395.52
2018-09-02T20:37:25.433Z,102389.55
2018-09-02T20:40:29.721Z,102381.06
2018-09-02T20:43:34.037Z,102383.05
2018-09-02T20:46:38.314Z,102383.45
2018-09-02T20:49:42.588Z,102377.19
2018-09-02T20:52:46.872Z,102377.12
2018-09-02T20:55:51.199Z,102379.49
2018-09-02T20:58:55.496Z,102383.62
2018-09-02T21:01:59.899Z,102377.83
2018-09-02T21:05:04.269Z,102382.41
2018-09-02T21:08:08.457Z,102378.20
2018-09-02T21:11:12.749Z,102384.16
2018-09-02T21:14:17.062Z,102385.15
2018-09-02T21:17:21.321Z,102384.00
2018-09-02T21:20:25.555Z,102382.86
2018-09-02T21:23:29.789Z,102380.34
2018-09-02T21:26:33.996Z,102378.87
2018-09-02T21:29:38.265Z,102369.72
2018-09-02T21:32:42.477Z,102377.67
2018-09-02T21:35:46.734Z,102376.20
2018-09-02T21:38:50.987Z,102378.42
2018-09-02T21:41:55.201Z,102380.33
2018-09-02T21:44:59.424Z,102378.95
2018-09-02T21:48:03.669Z,102375.06
2018-09-02T21:51:07.900Z,102376.49
2018-09-02T21:54:12.127Z,102372.70
2018-09-02T21:57:16.332Z,102373.84
2018-09-02T22:00:20.561Z,102369.05
2018-09-02T22:03:24.797Z,102370.20
2018-09-02T22:06:29.047Z,102364.01
2018-09-02T22:09:33.782Z,102365.24
2018-09-02T22:12:38.004Z,102361.86
2018-09-02T22:15:42.232Z,102353.38
2018-09-02T22:18:46.488Z,102352.84
2018-09-02T22:21:50.721Z,102348.08
2018-09-02T22:24:55.038Z,102347.33
2018-09-02T22:27:59.269Z,102347.56
2018-09-02T22:31:03.524Z,102348.78
2018-09-02T22:34:07.729Z,102346.27
2018-09-02T22:37:12.001Z,102351.09
2018-09-02T22:40:16.225Z,102340.03
2018-09-02T22:43:20.589Z,102346.00
2018-09-02T22:46:24.853Z,102343.48
2018-09-02T22:49:29.080Z,102339.73
2018-09-02T22:52:33.315Z,102339.73
2018-09-02T22:55:37.545Z,102331.42
2018-09-02T22:58:41.800Z,102339.25
2018-09-02T23:01:46.050Z,102333.38
2018-09-02T23:04:50.311Z,102333.38
2018-09-02T23:07:54.532Z,102333.98
2018-09-02T23:10:58.822Z,102333.00
2018-09-02T23:14:03.074Z,102323.06
2018-09-02T23:17:07.313Z,102325.70
2018-09-02T23:20:11.517Z,102321.92
2018-09-02T23:23:15.748Z,102317.22
2018-09-02T23:26:20.013Z,102315.90
2018-09-02T23:29:24.296Z,102314.82
2018-09-02T23:32:28.554Z,102314.30
2018-09-02T23:35:32.813Z,102306.05
2018-09-02T23:38:37.092Z,102297.27
2018-09-02T23:41:41.422Z,102290.70
2018-09-02T23:44:45.671Z,102289.27
2018-09-02T23:47:49.952Z,102292.92
2018-09-02T23:50:54.241Z,102285.76
2018-09-02T23:53:58.598Z,102278.00
2018-09-02T23:57:02.820Z,102275.25
